createdAt,value
2023-03-31T00:00:18.741Z,99401.28
2023-03-31T00:01:20.746Z,99407.22
2023-03-31T00:02:22.894Z,99406.34
2023-03-31T00:03:25.375Z,99406.78
2023-03-31T00:04:27.680Z,99410.41
2023-03-31T00:05:29.547Z,99415.16
2023-03-31T00:06:38.248Z,99409.19
2023-03-31T00:07:40.123Z,99405.84
2023-03-31T00:08:41.916Z,99414.06
2023-03-31T00:09:48.574Z,99410.41
2023-03-31T00:10:50.563Z,99410.09
2023-03-31T00:11:53.088Z,99409.88
2023-03-31T00:12:56.416Z,99403.63
2023-03-31T00:14:00.993Z,99409.03
2023-03-31T00:15:03.057Z,99410.09
2023-03-31T00:16:08.485Z,99412.91
2023-03-31T00:17:12.198Z,99400.88
2023-03-31T00:18:14.089Z,99403.47
2023-03-31T00:19:20.386Z,99403.25
2023-03-31T00:20:22.837Z,99410.22
2023-03-31T00:21:25.569Z,99412.13
2023-03-31T00:22:28.120Z,99411.19
2023-03-31T00:23:30.095Z,99398.59
2023-03-31T00:24:33.453Z,99404.28
2023-03-31T00:25:36.024Z,99406.34
2023-03-31T00:26:38.652Z,99402.25
2023-03-31T00:27:44.237Z,99399.44
2023-03-31T00:28:46.444Z,99392.94
2023-03-31T00:29:51.156Z,99399.09
2023-03-31T00:31:00.491Z,99393.50
2023-03-31T00:32:02.835Z,99394.09
2023-03-31T00:33:05.291Z,99390.66
2023-03-31T00:34:08.960Z,99396.44
2023-03-31T00:35:12.943Z,99396.84
2023-03-31T00:36:21.546Z,99406.47
2023-03-31T00:37:24.932Z,99399.31
2023-03-31T00:38:29.182Z,99401.25
2023-03-31T00:39:35.401Z,99401.81
2023-03-31T00:40:45.379Z,99395.66
2023-03-31T00:41:47.679Z,99396.59
2023-03-31T00:42:49.963Z,99396.84
2023-03-31T00:44:13.218Z,99394.66
2023-03-31T00:45:15.621Z,99397.72
2023-03-31T00:46:30.567Z,99389.56
2023-03-31T00:47:34.618Z,99392.53
2023-03-31T00:48:38.376Z,99403.63
2023-03-31T00:49:45.144Z,99391.94
2023-03-31T00:50:54.382Z,99403.84
2023-03-31T00:52:05.728Z,99401.00
2023-03-31T00:53:12.737Z,99403.84
2023-03-31T00:54:15.739Z,99393.41
2023-03-31T00:55:24.694Z,99394.09
2023-03-31T00:56:32.163Z,99390.47
2023-03-31T00:57:39.326Z,99390.91
2023-03-31T00:58:44.465Z,99392.53
2023-03-31T00:59:59.216Z,99389.78
2023-03-31T01:01:03.488Z,99389.22
2023-03-31T01:02:07.768Z,99393.19
2023-03-31T01:03:10.488Z,99386.59
2023-03-31T01:04:16.765Z,99379.00
2023-03-31T01:05:23.431Z,99381.00
2023-03-31T01:06:25.956Z,99384.53
2023-03-31T01:07:42.334Z,99378.88
2023-03-31T01:08:44.993Z,99377.72
2023-03-31T01:09:48.634Z,99368.31
2023-03-31T01:10:56.019Z,99362.53
2023-03-31T01:11:58.374Z,99360.34
2023-03-31T01:13:01.917Z,99360.59
2023-03-31T01:14:05.246Z,99364.56
2023-03-31T01:15:08.271Z,99358.88
2023-03-31T01:16:10.347Z,99360.47
2023-03-31T01:17:19.147Z,99363.19
2023-03-31T01:18:22.610Z,99361.56
2023-03-31T01:19:53.224Z,99362.94
2023-03-31T01:20:57.918Z,99362.94
2023-03-31T01:22:00.054Z,99368.81
2023-03-31T01:23:41.092Z,99364.53
2023-03-31T01:25:04.385Z,99358.75
2023-03-31T01:26:48.104Z,99358.44
2023-03-31T01:28:22.049Z,99352.88
2023-03-31T01:29:57.799Z,99349.09
2023-03-31T01:31:18.295Z,99349.09
2023-03-31T01:32:20.102Z,99357.63
2023-03-31T01:34:02.645Z,99352.06
2023-03-31T01:35:10.434Z,99353.31
2023-03-31T01:36:46.681Z,99356.38
2023-03-31T01:38:14.850Z,99354.69
2023-03-31T01:39:44.804Z,99345.38
2023-03-31T01:40:58.180Z,99352.53
2023-03-31T01:42:12.507Z,99345.94
2023-03-31T01:43:25.837Z,99351.50
2023-03-31T01:44:46.032Z,99349.94
2023-03-31T01:46:28.713Z,99345.72
2023-03-31T01:47:42.064Z,99362.31
2023-03-31T01:48:51.359Z,99348.44
2023-03-31T01:50:08.629Z,99361.16
2023-03-31T01:51:19.656Z,99357.41
2023-03-31T01:52:30.570Z,99343.66
2023-03-31T01:53:50.552Z,99352.31
2023-03-31T01:55:04.603Z,99352.63
2023-03-31T01:56:35.025Z,99344.94
2023-03-31T01:57:45.642Z,99351.63
2023-03-31T01:59:00.732Z,99359.00
2023-03-31T02:00:09.827Z,99351.63
2023-03-31T02:01:37.457Z,99352.53
2023-03-31T02:02:51.696Z,99357.53
2023-03-31T02:04:07.849Z,99354.56
2023-03-31T02:05:13.485Z,99347.31
2023-03-31T02:06:22.061Z,99346.28
2023-03-31T02:07:32.571Z,99341.75
2023-03-31T02:08:41.298Z,99345.25
2023-03-31T02:09:49.373Z,99336.53
2023-03-31T02:10:52.992Z,99338.69
2023-03-31T02:11:57.168Z,99332.56
2023-03-31T02:13:01.683Z,99339.81
2023-03-31T02:14:08.314Z,99341.16
2023-03-31T02:15:15.381Z,99331.31
2023-03-31T02:16:24.657Z,99340.94
2023-03-31T02:17:32.718Z,99334.56
2023-03-31T02:18:38.475Z,99334.00
2023-03-31T02:19:45.434Z,99347.19
2023-03-31T02:20:51.410Z,99339.38
2023-03-31T02:21:55.911Z,99349.34
2023-03-31T02:23:00.166Z,99339.69
2023-03-31T02:24:07.803Z,99337.56
2023-03-31T02:25:16.282Z,99336.31
2023-03-31T02:26:25.954Z,99345.25
2023-03-31T02:27:39.695Z,99345.03
2023-03-31T02:28:44.075Z,99346.97
2023-03-31T02:29:46.559Z,99341.72
2023-03-31T02:31:12.395Z,99343.22
2023-03-31T02:32:36.171Z,99354.38
2023-03-31T02:33:38.862Z,99350.72
2023-03-31T02:34:40.900Z,99349.56
2023-03-31T02:35:43.763Z,99359.25
2023-03-31T02:36:48.909Z,99355.72
2023-03-31T02:37:51.722Z,99361.72
2023-03-31T02:39:03.223Z,99359.78
2023-03-31T02:40:12.929Z,99367.06
2023-03-31T02:41:15.016Z,99361.59
2023-03-31T02:42:18.080Z,99359.47
2023-03-31T02:43:21.848Z,99368.66
2023-03-31T02:44:26.908Z,99355.69
2023-03-31T02:45:50.968Z,99362.97
2023-03-31T02:46:54.407Z,99359.34
2023-03-31T02:47:56.944Z,99366.84
2023-03-31T02:49:03.756Z,99360.03
2023-03-31T02:50:07.461Z,99371.16
2023-03-31T02:51:09.418Z,99363.78
2023-03-31T02:52:44.815Z,99363.31
2023-03-31T02:54:08.118Z,99364.34
2023-03-31T02:55:37.859Z,99368.41
2023-03-31T02:56:58.312Z,99358.31
2023-03-31T02:58:28.974Z,99359.22
2023-03-31T02:59:49.563Z,99353.66
2023-03-31T03:01:13.072Z,99357.50
2023-03-31T03:02:46.466Z,99366.38
2023-03-31T03:04:27.278Z,99362.41
2023-03-31T03:05:46.001Z,99373.88
2023-03-31T03:07:27.252Z,99376.38
2023-03-31T03:08:36.164Z,99375.47
2023-03-31T03:10:00.303Z,99383.66
2023-03-31T03:11:04.967Z,99380.34
2023-03-31T03:12:28.372Z,99373.44
2023-03-31T03:13:41.300Z,99364.56
2023-03-31T03:14:51.078Z,99359.91
2023-03-31T03:16:03.997Z,99353.22
2023-03-31T03:17:12.339Z,99348.22
2023-03-31T03:18:14.493Z,99343.34
2023-03-31T03:19:22.376Z,99334.72
2023-03-31T03:20:24.420Z,99336.19
2023-03-31T03:21:27.604Z,99337.31
2023-03-31T03:22:30.566Z,99345.72
2023-03-31T03:23:33.390Z,99326.19
2023-03-31T03:24:35.241Z,99319.38
2023-03-31T03:25:38.765Z,99316.22
2023-03-31T03:26:40.510Z,99313.13
2023-03-31T03:27:42.681Z,99307.34
2023-03-31T03:28:45.709Z,99310.94
2023-03-31T03:29:47.636Z,99297.75
2023-03-31T03:30:51.130Z,99296.88
2023-03-31T03:31:53.916Z,99302.19
2023-03-31T03:32:56.200Z,99297.69
2023-03-31T03:34:01.218Z,99309.97
2023-03-31T03:35:06.206Z,99298.66
2023-03-31T03:36:09.436Z,99300.41
2023-03-31T03:37:11.779Z,99296.88
2023-03-31T03:38:13.672Z,99297.31
2023-03-31T03:39:17.693Z,99290.88
2023-03-31T03:40:20.521Z,99295.84
2023-03-31T03:41:22.325Z,99298.09
2023-03-31T03:42:24.249Z,99297.88
2023-03-31T03:43:26.639Z,99297.53
2023-03-31T03:44:28.540Z,99298.03
2023-03-31T03:45:30.611Z,99297.69
2023-03-31T03:46:32.852Z,99301.19
2023-03-31T03:47:36.277Z,99301.88
2023-03-31T03:48:39.354Z,99303.50
2023-03-31T03:49:41.241Z,99301.91
2023-03-31T03:50:43.060Z,99304.50
2023-03-31T03:51:44.817Z,99292.50
2023-03-31T03:52:46.949Z,99295.44
2023-03-31T03:53:48.903Z,99301.44
2023-03-31T03:54:50.795Z,99302.13
2023-03-31T03:55:52.640Z,99300.88
2023-03-31T03:56:54.894Z,99303.47
2023-03-31T03:57:56.914Z,99297.97
2023-03-31T03:58:58.791Z,99298.03
2023-03-31T04:00:00.670Z,99292.34
2023-03-31T04:01:02.584Z,99292.81
2023-03-31T04:02:04.503Z,99286.81
2023-03-31T04:03:06.574Z,99286.94
2023-03-31T04:04:08.418Z,99282.59
2023-03-31T04:05:10.426Z,99281.94
2023-03-31T04:06:12.558Z,99283.50
2023-03-31T04:07:16.287Z,99285.56
2023-03-31T04:08:19.345Z,99279.63
2023-03-31T04:09:21.214Z,99282.13
2023-03-31T04:10:23.013Z,99288.38
2023-03-31T04:11:25.245Z,99290.28
2023-03-31T04:12:27.119Z,99292.25
2023-03-31T04:13:29.604Z,99289.88
2023-03-31T04:14:31.723Z,99295.88
2023-03-31T04:15:34.331Z,99286.00
2023-03-31T04:16:36.372Z,99283.41
2023-03-31T04:17:39.949Z,99282.81
2023-03-31T04:18:42.874Z,99283.50
2023-03-31T04:19:45.000Z,99277.94
2023-03-31T04:20:54.898Z,99275.75
2023-03-31T04:22:02.896Z,99267.25
2023-03-31T04:23:09.953Z,99269.16
2023-03-31T04:24:16.261Z,99272.91
2023-03-31T04:25:18.502Z,99271.91
2023-03-31T04:26:26.791Z,99270.88
2023-03-31T04:27:28.890Z,99270.16
2023-03-31T04:28:35.898Z,99264.09
2023-03-31T04:29:38.173Z,99269.66
2023-03-31T04:30:41.644Z,99266.22
2023-03-31T04:31:44.162Z,99266.22
2023-03-31T04:32:46.763Z,99276.66
2023-03-31T04:33:50.739Z,99281.22
2023-03-31T04:35:02.617Z,99270.00
2023-03-31T04:36:20.596Z,99272.59
2023-03-31T04:37:28.332Z,99266.72
2023-03-31T04:38:33.722Z,99272.28
2023-03-31T04:39:38.106Z,99266.72
2023-03-31T04:40:41.577Z,99263.31
2023-03-31T04:41:43.822Z,99260.81
2023-03-31T04:42:45.644Z,99260.59
2023-03-31T04:43:47.975Z,99270.13
2023-03-31T04:44:51.180Z,99268.28
2023-03-31T04:45:54.708Z,99274.22
2023-03-31T04:47:01.220Z,99278.28
2023-03-31T04:48:03.418Z,99264.00
2023-03-31T04:49:05.986Z,99273.53
2023-03-31T04:50:09.714Z,99269.88
2023-03-31T04:51:15.756Z,99276.25
2023-03-31T04:52:18.121Z,99273.84
2023-03-31T04:53:20.056Z,99279.66
2023-03-31T04:54:25.430Z,99275.78
2023-03-31T04:55:32.206Z,99278.41
2023-03-31T04:56:35.792Z,99275.66
2023-03-31T04:57:43.519Z,99280.47
2023-03-31T04:58:46.591Z,99282.72
2023-03-31T04:59:49.728Z,99280.78
2023-03-31T05:00:53.927Z,99278.47
2023-03-31T05:01:56.124Z,99272.75
2023-03-31T05:03:02.792Z,99266.34
2023-03-31T05:04:05.715Z,99269.13
2023-03-31T05:05:11.098Z,99272.69
2023-03-31T05:06:18.636Z,99285.75
2023-03-31T05:07:21.405Z,99287.91
2023-03-31T05:08:27.505Z,99292.59
2023-03-31T05:09:29.589Z,99285.91
2023-03-31T05:10:34.510Z,99291.22
2023-03-31T05:11:36.863Z,99288.59
2023-03-31T05:12:41.123Z,99288.59
2023-03-31T05:13:44.348Z,99288.72
2023-03-31T05:14:48.903Z,99287.25
2023-03-31T05:15:53.921Z,99281.22
2023-03-31T05:16:58.238Z,99283.69
2023-03-31T05:18:03.513Z,99286.53
2023-03-31T05:19:06.483Z,99275.78
2023-03-31T05:20:24.415Z,99280.66
2023-03-31T05:21:50.452Z,99277.09
2023-03-31T05:22:52.454Z,99280.06
2023-03-31T05:23:54.412Z,99273.28
2023-03-31T05:24:56.352Z,99273.75
2023-03-31T05:25:58.215Z,99280.34
2023-03-31T05:27:05.007Z,99258.41
2023-03-31T05:28:07.020Z,99264.16
2023-03-31T05:29:10.624Z,99259.56
2023-03-31T05:30:13.250Z,99255.91
2023-03-31T05:31:15.966Z,99245.25
2023-03-31T05:32:17.741Z,99244.78
2023-03-31T05:33:19.694Z,99241.47
2023-03-31T05:34:21.624Z,99238.88
2023-03-31T05:35:25.847Z,99241.16
2023-03-31T05:36:27.612Z,99241.59
2023-03-31T05:37:29.475Z,99237.97
2023-03-31T05:38:31.824Z,99240.56
2023-03-31T05:39:33.806Z,99240.56
2023-03-31T05:40:35.992Z,99243.59
2023-03-31T05:41:39.257Z,99243.28
2023-03-31T05:42:42.005Z,99224.91
2023-03-31T05:43:44.176Z,99233.41
2023-03-31T05:44:47.040Z,99227.44
2023-03-31T05:45:49.064Z,99221.84
2023-03-31T05:46:51.231Z,99222.22
2023-03-31T05:47:53.302Z,99222.84
2023-03-31T05:48:56.682Z,99229.28
2023-03-31T05:49:58.812Z,99233.94
2023-03-31T05:51:01.813Z,99221.28
2023-03-31T05:52:03.624Z,99224.50
2023-03-31T05:53:05.530Z,99223.72
2023-03-31T05:54:08.016Z,99225.59
2023-03-31T05:55:10.503Z,99219.72
2023-03-31T05:56:13.792Z,99220.66
2023-03-31T05:57:15.717Z,99218.25
2023-03-31T05:58:17.622Z,99218.06
2023-03-31T05:59:20.364Z,99219.22
2023-03-31T06:00:22.956Z,99214.00
2023-03-31T06:01:26.533Z,99216.19
2023-03-31T06:02:28.784Z,99218.72
2023-03-31T06:03:30.741Z,99217.28
2023-03-31T06:04:35.965Z,99218.78
2023-03-31T06:05:38.094Z,99222.84
2023-03-31T06:06:40.019Z,99217.28
2023-03-31T06:07:41.889Z,99219.78
2023-03-31T06:08:46.302Z,99222.22
2023-03-31T06:09:48.219Z,99218.38
2023-03-31T06:10:51.245Z,99222.94
2023-03-31T06:11:53.000Z,99224.97
2023-03-31T06:12:55.044Z,99222.84
2023-03-31T06:13:56.860Z,99224.00
2023-03-31T06:14:58.766Z,99232.56
2023-03-31T06:16:01.335Z,99226.16
2023-03-31T06:17:06.187Z,99229.84
2023-03-31T06:18:10.671Z,99226.50
2023-03-31T06:19:12.612Z,99222.19
2023-03-31T06:20:27.187Z,99215.59
2023-03-31T06:21:30.134Z,99223.31
2023-03-31T06:22:32.138Z,99220.91
2023-03-31T06:23:34.671Z,99217.47
2023-03-31T06:24:36.483Z,99228.56
2023-03-31T06:25:50.385Z,99221.00
2023-03-31T06:26:55.601Z,99227.44
2023-03-31T06:27:58.472Z,99231.38
2023-03-31T06:29:00.417Z,99227.13
2023-03-31T06:30:02.326Z,99217.53
2023-03-31T06:31:07.753Z,99218.25
2023-03-31T06:32:11.896Z,99226.66
2023-03-31T06:33:14.814Z,99219.66
2023-03-31T06:34:21.356Z,99218.38
2023-03-31T06:35:28.140Z,99221.31
2023-03-31T06:38:15.322Z,99226.97
2023-03-31T06:39:18.262Z,99224.81
2023-03-31T06:40:21.974Z,99212.69
2023-03-31T06:41:27.625Z,99212.78
2023-03-31T06:42:33.391Z,99218.94
2023-03-31T06:43:35.620Z,99219.28
2023-03-31T06:44:39.238Z,99221.22
2023-03-31T06:45:41.660Z,99231.09
2023-03-31T06:46:44.346Z,99224.78
2023-03-31T06:47:46.424Z,99230.22
2023-03-31T06:48:50.266Z,99236.94
2023-03-31T06:49:52.115Z,99223.75
2023-03-31T06:50:55.607Z,99228.06
2023-03-31T06:52:02.094Z,99227.63
2023-03-31T06:53:04.747Z,99225.47
2023-03-31T06:54:12.802Z,99223.94
2023-03-31T06:55:17.190Z,99214.06
2023-03-31T06:56:20.092Z,99218.09
2023-03-31T06:57:22.326Z,99213.44
2023-03-31T06:58:24.630Z,99208.78
2023-03-31T06:59:26.686Z,99202.88
2023-03-31T07:00:29.238Z,99197.84
2023-03-31T07:01:31.926Z,99192.38
2023-03-31T07:02:34.365Z,99197.19
2023-03-31T07:03:36.472Z,99194.28
2023-03-31T07:04:40.011Z,99190.59
2023-03-31T07:05:41.998Z,99189.72
2023-03-31T07:06:44.968Z,99193.31
2023-03-31T07:07:47.502Z,99202.84
2023-03-31T07:08:49.781Z,99206.38
2023-03-31T07:09:56.155Z,99208.25
2023-03-31T07:11:00.576Z,99207.19
2023-03-31T07:12:05.409Z,99212.56
2023-03-31T07:13:07.840Z,99214.94
2023-03-31T07:14:10.281Z,99206.22
2023-03-31T07:15:12.495Z,99205.31
2023-03-31T07:16:14.336Z,99211.25
2023-03-31T07:17:17.341Z,99199.19
2023-03-31T07:18:26.075Z,99207.38
2023-03-31T07:19:29.271Z,99208.13
2023-03-31T07:20:33.419Z,99192.47
2023-03-31T07:21:35.456Z,99198.72
2023-03-31T07:22:38.758Z,99198.91
2023-03-31T07:23:40.674Z,99195.50
2023-03-31T07:24:44.616Z,99192.69
2023-03-31T07:25:47.006Z,99188.75
2023-03-31T07:26:49.379Z,99197.00
2023-03-31T07:27:51.669Z,99192.88
2023-03-31T07:28:56.883Z,99192.13
2023-03-31T07:29:59.119Z,99192.41
2023-03-31T07:31:01.989Z,99186.72
2023-03-31T07:32:07.682Z,99202.44
2023-03-31T07:33:10.591Z,99197.91
2023-03-31T07:34:13.922Z,99194.84
2023-03-31T07:35:17.002Z,99202.69
2023-03-31T07:36:19.319Z,99204.72
2023-03-31T07:37:21.637Z,99201.72
2023-03-31T07:38:25.157Z,99197.41
2023-03-31T07:39:29.522Z,99200.31
2023-03-31T07:40:32.566Z,99193.34
2023-03-31T07:41:36.717Z,99197.09
2023-03-31T07:42:41.033Z,99185.69
2023-03-31T07:43:44.880Z,99190.59
2023-03-31T07:44:47.984Z,99188.22
2023-03-31T07:45:50.055Z,99195.31
2023-03-31T07:46:51.923Z,99194.06
2023-03-31T07:47:54.242Z,99200.16
2023-03-31T07:48:58.367Z,99201.94
2023-03-31T07:50:00.812Z,99194.47
2023-03-31T07:51:03.382Z,99185.53
2023-03-31T07:52:09.643Z,99186.75
2023-03-31T07:53:15.585Z,99189.25
2023-03-31T07:54:17.654Z,99184.16
2023-03-31T07:55:21.515Z,99185.09
2023-03-31T07:56:25.749Z,99190.75
2023-03-31T07:57:33.437Z,99192.41
2023-03-31T07:58:35.902Z,99184.94
2023-03-31T07:59:43.584Z,99188.03
2023-03-31T08:00:46.943Z,99187.97
2023-03-31T08:01:51.713Z,99189.00
2023-03-31T08:02:54.134Z,99189.38
2023-03-31T08:03:59.490Z,99179.00
2023-03-31T08:05:04.085Z,99185.53
2023-03-31T08:06:07.084Z,99178.00
2023-03-31T08:07:14.350Z,99179.91
2023-03-31T08:08:17.401Z,99188.06
2023-03-31T08:09:20.804Z,99174.53
2023-03-31T08:10:27.633Z,99185.84
2023-03-31T08:11:32.326Z,99181.88
2023-03-31T08:12:34.248Z,99181.75
2023-03-31T08:13:38.732Z,99177.72
2023-03-31T08:14:42.532Z,99174.66
2023-03-31T08:15:45.102Z,99165.94
2023-03-31T08:16:49.230Z,99167.59
2023-03-31T08:17:55.444Z,99173.09
2023-03-31T08:18:59.207Z,99164.75
2023-03-31T08:20:05.380Z,99159.47
2023-03-31T08:21:11.826Z,99148.53
2023-03-31T08:22:14.002Z,99148.53
2023-03-31T08:23:16.811Z,99151.28
2023-03-31T08:24:21.826Z,99147.38
2023-03-31T08:25:24.103Z,99150.69
2023-03-31T08:26:26.300Z,99154.69
2023-03-31T08:27:29.052Z,99158.88
2023-03-31T08:28:31.078Z,99155.72
2023-03-31T08:29:34.160Z,99143.28
2023-03-31T08:30:38.914Z,99143.31
2023-03-31T08:31:41.039Z,99138.44
2023-03-31T08:32:43.483Z,99138.28
2023-03-31T08:33:47.236Z,99137.59
2023-03-31T08:34:51.987Z,99132.97
2023-03-31T08:35:54.186Z,99137.06
2023-03-31T08:37:04.605Z,99139.19
2023-03-31T08:38:07.884Z,99125.50
2023-03-31T08:39:18.807Z,99127.78
2023-03-31T08:40:29.719Z,99125.91
2023-03-31T08:41:45.513Z,99130.59
2023-03-31T08:42:56.073Z,99130.69
2023-03-31T08:44:01.640Z,99129.09
2023-03-31T08:45:22.393Z,99135.13
2023-03-31T08:46:29.318Z,99125.69
2023-03-31T08:47:35.162Z,99120.44
2023-03-31T08:48:54.367Z,99117.16
2023-03-31T08:50:05.471Z,99121.59
2023-03-31T08:51:24.507Z,99113.38
2023-03-31T08:52:41.088Z,99124.78
2023-03-31T08:54:06.466Z,99111.69
2023-03-31T08:55:17.869Z,99119.19
2023-03-31T08:56:24.107Z,99105.16
2023-03-31T08:57:32.971Z,99107.81
2023-03-31T08:58:50.069Z,99114.56
2023-03-31T08:59:52.708Z,99109.34
2023-03-31T09:01:00.414Z,99113.19
2023-03-31T09:02:34.174Z,99107.50
2023-03-31T09:03:47.579Z,99100.38
2023-03-31T09:05:01.852Z,99110.94
2023-03-31T09:06:13.312Z,99103.56
2023-03-31T09:07:34.850Z,99113.28
2023-03-31T09:08:41.161Z,99112.31
2023-03-31T09:10:11.092Z,99107.50
2023-03-31T09:11:13.252Z,99114.56
2023-03-31T09:12:24.385Z,99104.50
2023-03-31T09:13:45.250Z,99104.94
2023-03-31T09:15:10.443Z,99097.28
2023-03-31T09:16:16.764Z,99097.56
2023-03-31T09:17:26.973Z,99107.22
2023-03-31T09:18:48.692Z,99101.03
2023-03-31T09:20:47.616Z,99097.41
2023-03-31T09:22:33.005Z,99090.22
2023-03-31T09:24:14.113Z,99092.56
2023-03-31T09:25:24.396Z,99091.94
2023-03-31T09:26:55.350Z,99083.59
2023-03-31T09:28:03.130Z,99083.06
2023-03-31T09:29:19.636Z,99092.47
2023-03-31T09:30:34.494Z,99079.72
2023-03-31T09:31:39.078Z,99077.50
2023-03-31T09:32:41.893Z,99084.69
2023-03-31T09:33:48.277Z,99085.44
2023-03-31T09:34:58.738Z,99076.09
2023-03-31T09:36:20.954Z,99074.66
2023-03-31T09:37:35.325Z,99068.06
2023-03-31T09:39:07.524Z,99077.00
2023-03-31T09:40:18.133Z,99075.25
2023-03-31T09:41:25.318Z,99077.16
2023-03-31T09:42:29.231Z,99079.09
2023-03-31T09:43:38.591Z,99075.72
2023-03-31T09:44:47.591Z,99069.88
2023-03-31T09:47:05.545Z,99066.66
2023-03-31T09:48:19.381Z,99056.69
2023-03-31T09:49:27.775Z,99061.84
2023-03-31T09:50:34.015Z,99061.72
2023-03-31T09:51:45.360Z,99061.31
2023-03-31T09:52:56.624Z,99057.31
2023-03-31T09:54:16.948Z,99051.16
2023-03-31T09:55:49.593Z,99057.78
2023-03-31T09:57:03.317Z,99048.06
2023-03-31T09:58:21.173Z,99047.91
2023-03-31T09:59:39.207Z,99045.75
2023-03-31T10:01:04.644Z,99044.31
2023-03-31T10:02:26.635Z,99045.91
2023-03-31T10:03:39.347Z,99038.22
2023-03-31T10:04:48.731Z,99040.72
2023-03-31T10:05:57.099Z,99043.31
2023-03-31T10:07:01.422Z,99047.56
2023-03-31T10:08:13.813Z,99049.56
2023-03-31T10:09:25.834Z,99047.66
2023-03-31T10:10:38.406Z,99042.38
2023-03-31T10:11:53.560Z,99046.22
2023-03-31T10:13:01.359Z,99043.66
2023-03-31T10:14:37.657Z,99035.34
2023-03-31T10:15:42.249Z,99041.00
2023-03-31T10:17:02.771Z,99034.34
2023-03-31T10:18:06.781Z,99030.47
2023-03-31T10:19:36.256Z,99040.38
2023-03-31T10:20:50.903Z,99035.09
2023-03-31T10:22:19.723Z,99035.25
2023-03-31T10:23:31.499Z,99043.00
2023-03-31T10:24:44.514Z,99038.97
2023-03-31T10:25:51.740Z,99041.44
2023-03-31T10:27:04.767Z,99045.63
2023-03-31T10:28:26.404Z,99045.41
2023-03-31T10:29:35.382Z,99038.41
2023-03-31T10:33:01.542Z,99039.09
2023-03-31T10:34:15.757Z,99031.84
2023-03-31T10:35:30.318Z,99029.34
2023-03-31T10:36:41.912Z,99029.97
2023-03-31T10:38:19.292Z,99036.66
2023-03-31T10:39:33.106Z,99026.56
2023-03-31T10:40:53.175Z,99029.44
2023-03-31T10:42:05.529Z,99030.63
2023-03-31T10:43:26.432Z,99031.59
2023-03-31T10:46:58.935Z,99024.72
2023-03-31T10:48:25.215Z,99027.31
2023-03-31T10:49:37.690Z,99023.63
2023-03-31T10:50:43.514Z,99024.16
2023-03-31T10:51:57.289Z,99027.44
2023-03-31T10:53:21.450Z,99023.47
2023-03-31T10:54:29.495Z,99021.88
2023-03-31T10:55:56.015Z,99013.25
2023-03-31T10:57:06.752Z,99010.25
2023-03-31T10:59:05.289Z,99008.81
2023-03-31T11:00:34.226Z,99009.66
2023-03-31T11:02:23.663Z,99003.47
2023-03-31T11:04:28.336Z,99005.75
2023-03-31T11:05:42.821Z,99003.31
2023-03-31T11:07:26.108Z,98997.09
2023-03-31T11:08:45.806Z,98989.03
2023-03-31T11:10:25.409Z,98977.78
2023-03-31T11:12:05.939Z,98983.41
2023-03-31T11:13:37.056Z,98985.22
2023-03-31T11:15:00.170Z,98989.63
2023-03-31T11:16:13.633Z,98979.09
2023-03-31T11:19:15.350Z,98987.66
2023-03-31T11:20:30.899Z,98989.03
2023-03-31T11:22:13.416Z,98987.53
2023-03-31T11:23:29.107Z,98980.50
2023-03-31T11:25:06.789Z,98985.34
2023-03-31T11:26:29.168Z,98989.59
2023-03-31T11:28:17.598Z,98979.25
2023-03-31T11:29:33.239Z,98977.59
2023-03-31T11:31:01.669Z,98967.16
2023-03-31T11:32:52.627Z,98968.25
2023-03-31T11:34:23.457Z,98963.28
2023-03-31T11:35:46.095Z,98962.72
2023-03-31T11:37:34.391Z,98959.47
2023-03-31T11:39:06.296Z,98953.03
2023-03-31T11:40:35.664Z,98954.50
2023-03-31T11:42:16.514Z,98950.34
2023-03-31T11:43:36.584Z,98953.88
2023-03-31T11:44:46.656Z,98956.28
2023-03-31T11:45:57.340Z,98951.69
2023-03-31T11:47:07.748Z,98956.59
2023-03-31T11:48:37.328Z,98951.75
2023-03-31T11:49:46.429Z,98954.59
2023-03-31T11:50:51.012Z,98958.22
2023-03-31T11:52:12.553Z,98953.84
2023-03-31T11:53:27.200Z,98952.28
2023-03-31T11:54:56.019Z,98950.09
2023-03-31T11:56:07.851Z,98954.66
2023-03-31T11:57:24.880Z,98952.09
2023-03-31T11:58:58.756Z,98954.63
2023-03-31T12:00:34.983Z,98956.41
2023-03-31T12:02:23.338Z,98955.97
2023-03-31T12:04:15.755Z,98952.09
2023-03-31T12:05:28.710Z,98958.72
2023-03-31T12:06:42.722Z,98952.22
2023-03-31T12:07:56.395Z,98946.69
2023-03-31T12:09:24.262Z,98945.59
2023-03-31T12:10:34.072Z,98943.44
2023-03-31T12:12:18.173Z,98947.31
2023-03-31T12:13:36.234Z,98941.91
2023-03-31T12:15:12.080Z,98939.94
2023-03-31T12:17:18.503Z,98940.75
2023-03-31T12:23:14.656Z,98930.16
2023-03-31T12:24:46.179Z,98924.59
2023-03-31T12:26:58.964Z,98920.28
2023-03-31T12:28:18.772Z,98921.81
2023-03-31T12:29:39.329Z,98921.56
2023-03-31T12:30:50.067Z,98925.31
2023-03-31T12:32:05.939Z,98913.53
2023-03-31T12:33:44.401Z,98925.63
2023-03-31T12:34:58.853Z,98915.91
2023-03-31T12:39:08.862Z,98916.69
2023-03-31T12:40:53.036Z,98910.44
2023-03-31T12:42:13.678Z,98909.03
2023-03-31T12:43:52.003Z,98905.94
2023-03-31T12:45:11.431Z,98916.19
2023-03-31T12:57:18.941Z,98901.97
2023-03-31T12:59:40.123Z,98892.06
2023-03-31T13:01:26.816Z,98886.91
2023-03-31T13:03:02.491Z,98896.28
2023-03-31T13:04:37.060Z,98898.72
2023-03-31T13:11:12.603Z,98886.97
2023-03-31T13:12:41.607Z,98892.19
2023-03-31T13:14:08.934Z,98893.78
2023-03-31T13:15:54.947Z,98896.94
2023-03-31T13:17:29.524Z,98898.75
2023-03-31T13:18:37.897Z,98903.31
2023-03-31T13:19:51.772Z,98887.53
2023-03-31T13:21:05.864Z,98890.16
2023-03-31T13:22:29.557Z,98888.63
2023-03-31T13:23:37.184Z,98888.38
2023-03-31T13:24:42.040Z,98884.31
2023-03-31T13:25:48.865Z,98881.81
2023-03-31T13:26:54.881Z,98879.66
2023-03-31T13:27:59.760Z,98877.25
2023-03-31T13:29:23.427Z,98878.19
2023-03-31T13:30:37.474Z,98873.81
2023-03-31T13:32:21.566Z,98878.84
2023-03-31T13:33:27.257Z,98868.94
2023-03-31T13:34:46.748Z,98872.59
2023-03-31T13:36:10.022Z,98868.75
2023-03-31T13:37:37.859Z,98867.00
2023-03-31T13:38:59.246Z,98856.06
2023-03-31T13:41:01.386Z,98861.53
2023-03-31T13:42:44.390Z,98866.81
2023-03-31T13:44:29.825Z,98865.94
2023-03-31T13:45:58.264Z,98875.50
2023-03-31T13:47:49.975Z,98868.53
2023-03-31T13:49:14.979Z,98874.78
2023-03-31T13:51:15.227Z,98861.66
2023-03-31T13:53:23.595Z,98874.66
2023-03-31T13:55:21.760Z,98871.59
2023-03-31T13:56:51.554Z,98859.13
2023-03-31T13:58:29.922Z,98868.34
2023-03-31T14:01:21.478Z,98863.78
2023-03-31T14:03:05.368Z,98864.75
2023-03-31T14:04:44.758Z,98866.03
2023-03-31T14:06:40.422Z,98861.53
2023-03-31T14:07:52.583Z,98855.81
2023-03-31T14:09:23.374Z,98864.66
2023-03-31T14:10:43.890Z,98854.97
2023-03-31T14:11:56.817Z,98855.81
2023-03-31T14:13:20.068Z,98858.13
2023-03-31T14:14:56.247Z,98849.53
2023-03-31T14:16:04.959Z,98847.31
2023-03-31T14:17:12.619Z,98851.44
2023-03-31T14:18:34.706Z,98856.06
2023-03-31T14:21:55.660Z,98850.13
2023-03-31T14:22:59.177Z,98850.41
2023-03-31T14:24:10.215Z,98854.81
2023-03-31T14:25:42.995Z,98848.91
2023-03-31T14:27:07.596Z,98857.09
2023-03-31T14:28:36.186Z,98852.13
2023-03-31T14:29:47.549Z,98854.44
2023-03-31T14:31:20.358Z,98852.06
2023-03-31T14:32:42.692Z,98846.47
2023-03-31T14:33:47.915Z,98851.94
2023-03-31T14:34:54.378Z,98849.75
2023-03-31T14:36:08.894Z,98849.34